createdAt,value
2023-01-14T00:00:41.992Z,1.20
2023-01-14T00:05:56.017Z,1.98
2023-01-14T00:11:03.774Z,1.13
2023-01-14T00:16:10.269Z,1.58
2023-01-14T00:21:16.631Z,1.83
2023-01-14T00:26:20.439Z,1.83
2023-01-14T00:31:28.264Z,1.67
2023-01-14T00:36:33.461Z,1.70
2023-01-14T00:41:37.283Z,1.65
2023-01-14T00:46:42.974Z,1.40
2023-01-14T00:51:48.547Z,1.90
2023-01-14T00:56:52.538Z,1.60
2023-01-14T01:01:56.775Z,2.03
2023-01-14T01:07:02.898Z,2.10
2023-01-14T01:12:07.149Z,2.15
2023-01-14T01:17:10.888Z,2.28
2023-01-14T01:22:15.999Z,2.20
2023-01-14T01:27:19.746Z,2.35
2023-01-14T01:32:23.441Z,2.53
2023-01-14T01:37:28.569Z,2.78
2023-01-14T01:42:34.991Z,2.22
2023-01-14T01:47:40.081Z,2.65
2023-01-14T01:52:45.631Z,2.17
2023-01-14T01:57:56.442Z,1.80
2023-01-14T02:03:03.832Z,2.05
2023-01-14T02:08:09.315Z,2.33
2023-01-14T02:13:29.905Z,2.15
2023-01-14T02:18:47.954Z,2.72
2023-01-14T02:24:24.646Z,2.13
2023-01-14T02:29:50.171Z,2.05
2023-01-14T02:35:04.459Z,2.22
2023-01-14T02:40:13.965Z,2.67
2023-01-14T02:45:26.529Z,2.50
2023-01-14T02:50:33.804Z,2.35
2023-01-14T02:55:39.546Z,2.30
2023-01-14T03:00:59.216Z,2.45
2023-01-14T03:06:22.902Z,1.75
2023-01-14T03:11:40.491Z,2.95
2023-01-14T03:16:49.934Z,2.42
2023-01-14T03:21:56.628Z,1.75
2023-01-14T03:27:06.165Z,2.85
2023-01-14T03:32:17.025Z,2.38
2023-01-14T03:37:23.265Z,1.75
2023-01-14T03:42:32.336Z,2.10
2023-01-14T03:47:38.732Z,2.15
2023-01-14T03:52:51.966Z,1.93
2023-01-14T03:58:01.121Z,2.03
2023-01-14T04:03:10.239Z,1.67
2023-01-14T04:08:13.960Z,1.27
2023-01-14T04:13:36.572Z,1.35
2023-01-14T04:18:41.559Z,1.85
2023-01-14T04:23:45.287Z,1.73
2023-01-14T04:28:49.046Z,2.30
2023-01-14T04:33:54.224Z,1.48
2023-01-14T04:38:58.046Z,2.08
2023-01-14T04:44:01.908Z,2.13
2023-01-14T04:49:07.040Z,1.38
2023-01-14T04:54:10.795Z,1.70
2023-01-14T04:59:14.622Z,1.02
2023-01-14T05:04:19.963Z,1.80
2023-01-14T05:09:23.701Z,1.38
2023-01-14T05:14:28.019Z,1.58
2023-01-14T05:19:33.097Z,1.42
2023-01-14T05:24:36.761Z,1.75
2023-01-14T05:29:40.486Z,1.23
2023-01-14T05:34:45.657Z,2.22
2023-01-14T05:39:49.459Z,2.10
2023-01-14T05:45:10.633Z,1.70
2023-01-14T05:50:16.201Z,1.67
2023-01-14T05:55:24.519Z,1.30
2023-01-14T06:00:46.903Z,1.70
2023-01-14T06:06:09.312Z,1.70
2023-01-14T06:11:13.025Z,2.28
2023-01-14T06:16:16.953Z,1.50
2023-01-14T06:21:24.149Z,1.98
2023-01-14T06:31:33.362Z,1.83
2023-01-14T06:36:39.507Z,1.42
2023-01-14T06:41:43.181Z,1.50
2023-01-14T06:46:46.895Z,1.48
2023-01-14T06:51:51.975Z,1.50
2023-01-14T06:56:55.632Z,2.05
2023-01-14T07:01:59.373Z,1.88
2023-01-14T07:07:04.990Z,1.75
2023-01-14T07:12:08.706Z,1.65
2023-01-14T07:17:12.477Z,1.45
2023-01-14T07:22:17.509Z,1.88
2023-01-14T07:27:21.193Z,1.10
2023-01-14T07:32:25.093Z,1.38
2023-01-14T07:37:30.183Z,1.15
2023-01-14T07:42:33.903Z,1.58
2023-01-14T07:47:37.568Z,1.13
2023-01-14T07:52:42.619Z,1.50
2023-01-14T07:57:46.414Z,1.48
2023-01-14T08:02:50.203Z,1.27
2023-01-14T08:07:56.353Z,1.42
2023-01-14T08:13:00.064Z,1.77
2023-01-14T08:18:05.759Z,1.40
2023-01-14T08:23:11.643Z,1.33
2023-01-14T08:28:15.332Z,1.27
2023-01-14T08:33:19.171Z,1.08
2023-01-14T08:38:24.242Z,1.48
2023-01-14T08:43:28.032Z,1.20
2023-01-14T08:48:31.982Z,0.73
2023-01-14T08:53:38.171Z,0.90
2023-01-14T08:58:41.937Z,1.15
2023-01-14T09:03:47.196Z,0.90
2023-01-14T09:09:09.670Z,0.90
2023-01-14T09:14:31.236Z,0.90
2023-01-14T09:19:37.634Z,0.73
2023-01-14T09:24:42.784Z,0.83
2023-01-14T09:29:46.485Z,0.90
2023-01-14T09:34:51.421Z,0.68
2023-01-14T09:39:56.552Z,0.90
2023-01-14T09:45:08.505Z,0.68
2023-01-14T09:50:17.216Z,1.42
2023-01-14T09:55:32.210Z,0.77
2023-01-14T10:00:45.998Z,0.75
2023-01-14T10:05:55.435Z,0.85
2023-01-14T10:11:00.597Z,1.40
2023-01-14T10:16:10.026Z,1.42
2023-01-14T10:21:21.950Z,1.05
2023-01-14T10:26:33.236Z,1.25
2023-01-14T10:31:38.721Z,1.00
2023-01-14T10:36:42.446Z,0.85
2023-01-14T10:41:53.299Z,0.80
2023-01-14T10:46:59.873Z,0.77
2023-01-14T10:52:03.635Z,0.75
2023-01-14T10:57:18.546Z,1.05
2023-01-14T11:02:35.631Z,1.00
2023-01-14T11:12:45.281Z,0.57
2023-01-14T11:17:49.050Z,0.60
2023-01-14T11:23:00.981Z,0.68
2023-01-14T11:28:07.971Z,0.40
2023-01-14T11:33:43.733Z,0.77
2023-01-14T11:38:48.609Z,0.63
2023-01-14T11:43:59.176Z,0.40
2023-01-14T11:49:06.318Z,0.52
2023-01-14T11:59:31.191Z,0.52
2023-01-14T12:04:41.024Z,0.60
2023-01-14T12:09:49.620Z,0.70
2023-01-14T12:15:24.209Z,0.45
2023-01-14T12:20:30.788Z,0.60
2023-01-14T12:25:38.020Z,0.38
2023-01-14T12:30:49.870Z,0.80
2023-01-14T12:35:59.363Z,0.28
2023-01-14T12:41:23.693Z,0.30
2023-01-14T12:46:28.954Z,0.30
2023-01-14T12:51:36.078Z,0.28
2023-01-14T12:56:50.539Z,0.80
2023-01-14T13:01:58.964Z,0.40
2023-01-14T13:07:06.015Z,0.40
2023-01-14T13:12:23.266Z,0.98
2023-01-14T13:17:34.329Z,0.70
2023-01-14T13:22:44.706Z,0.75
2023-01-14T13:27:48.860Z,0.70
2023-01-14T13:32:55.648Z,0.45
2023-01-14T13:38:01.142Z,0.50
2023-01-14T13:43:08.540Z,0.77
2023-01-14T13:48:20.816Z,0.73
2023-01-14T13:53:30.523Z,0.80
2023-01-14T13:58:39.991Z,0.77
2023-01-14T14:03:45.076Z,0.60
2023-01-14T14:08:52.532Z,1.10
2023-01-14T14:14:07.649Z,0.77
2023-01-14T14:19:19.672Z,0.75
2023-01-14T14:24:28.341Z,0.85
2023-01-14T14:29:35.626Z,0.80
2023-01-14T14:34:42.394Z,0.68
2023-01-14T14:39:53.671Z,0.68
2023-01-14T14:44:59.579Z,1.20
2023-01-14T14:50:23.604Z,1.13
2023-01-14T14:55:37.774Z,1.50
2023-01-14T15:00:41.552Z,1.27
2023-01-14T15:05:47.327Z,1.00
2023-01-14T15:10:51.140Z,0.85
2023-01-14T15:16:06.587Z,1.38
2023-01-14T15:21:13.848Z,1.10
2023-01-14T15:26:19.417Z,1.20
2023-01-14T15:31:26.007Z,0.95
2023-01-14T15:36:33.653Z,1.10
2023-01-14T15:41:39.209Z,1.50
2023-01-14T15:46:45.378Z,1.10
2023-01-14T15:51:51.403Z,1.27
2023-01-14T15:56:55.844Z,1.85
2023-01-14T16:01:59.723Z,1.40
2023-01-14T16:07:14.355Z,1.50
2023-01-14T16:12:18.587Z,1.73
2023-01-14T16:17:23.163Z,1.48
2023-01-14T16:22:28.355Z,1.75
2023-01-14T16:27:32.159Z,3.95
2023-01-14T16:32:36.499Z,2.08
2023-01-14T16:37:42.759Z,1.65
2023-01-14T16:42:47.927Z,1.50
2023-01-14T16:47:51.977Z,1.10
2023-01-14T16:52:57.551Z,3.15
2023-01-14T16:58:01.408Z,1.55
2023-01-14T17:03:05.854Z,3.05
2023-01-14T17:08:11.081Z,2.10
2023-01-14T17:13:14.871Z,1.60
2023-01-14T17:18:18.625Z,1.10
2023-01-14T17:23:24.069Z,1.15
2023-01-14T17:28:28.610Z,1.25
2023-01-14T17:33:32.418Z,1.33
2023-01-14T17:38:38.620Z,1.33
2023-01-14T17:43:42.582Z,0.97
2023-01-14T17:48:47.649Z,2.25
2023-01-14T17:53:52.832Z,1.73
2023-01-14T17:58:56.885Z,1.85
2023-01-14T18:04:01.428Z,5.40
2023-01-14T18:09:06.599Z,2.30
2023-01-14T18:14:10.334Z,2.10
2023-01-14T18:19:14.056Z,1.50
2023-01-14T18:24:19.412Z,2.67
2023-01-14T18:29:23.341Z,2.17
2023-01-14T18:34:27.047Z,2.33
2023-01-14T18:39:33.900Z,1.95
2023-01-14T18:44:38.363Z,1.85
2023-01-14T18:49:43.385Z,2.33
2023-01-14T18:54:48.409Z,0.93
2023-01-14T18:59:52.170Z,1.50
2023-01-14T19:04:55.965Z,1.45
2023-01-14T19:10:01.093Z,1.50
2023-01-14T19:15:05.343Z,1.33
2023-01-14T19:20:10.485Z,1.10
2023-01-14T19:25:15.644Z,0.90
2023-01-14T19:30:19.683Z,0.60
2023-01-14T19:35:23.346Z,1.05
2023-01-14T19:40:28.449Z,1.02
2023-01-14T19:45:32.125Z,0.95
2023-01-14T19:50:35.906Z,0.57
2023-01-14T19:55:40.942Z,0.70
2023-01-14T20:00:44.793Z,0.77
2023-01-14T20:05:50.131Z,0.70
2023-01-14T20:10:55.438Z,1.27
2023-01-14T20:16:00.357Z,0.75
2023-01-14T20:21:06.554Z,0.90
2023-01-14T20:26:19.103Z,0.60
2023-01-14T20:31:25.408Z,3.22
2023-01-14T20:36:29.415Z,3.83
2023-01-14T20:41:48.519Z,1.10
2023-01-14T20:46:52.259Z,0.85
2023-01-14T20:51:56.008Z,0.43
2023-01-14T20:57:01.462Z,0.82
2023-01-14T21:02:06.457Z,1.08
2023-01-14T21:07:10.520Z,0.70
2023-01-14T21:12:15.807Z,0.55
2023-01-14T21:17:36.638Z,1.13
2023-01-14T21:22:59.261Z,1.58
2023-01-14T21:28:08.435Z,0.98
2023-01-14T21:33:12.475Z,1.02
2023-01-14T21:38:16.627Z,1.08
2023-01-14T21:43:29.364Z,1.30
2023-01-14T21:48:33.529Z,0.90
2023-01-14T21:53:37.405Z,0.90
2023-01-14T21:58:43.365Z,0.73
2023-01-14T22:03:47.630Z,0.70
2023-01-14T22:08:51.397Z,0.70
2023-01-14T22:13:56.935Z,0.77
2023-01-14T22:19:00.680Z,0.90
2023-01-14T22:24:04.861Z,0.88
2023-01-14T22:29:10.064Z,1.20
2023-01-14T22:34:14.085Z,0.95
2023-01-14T22:39:18.920Z,0.85
2023-01-14T22:44:24.397Z,0.50
2023-01-14T22:49:28.274Z,0.75
2023-01-14T22:54:32.514Z,0.68
2023-01-14T22:59:38.064Z,0.65
2023-01-14T23:04:42.153Z,0.75
2023-01-14T23:09:46.089Z,0.77
2023-01-14T23:14:51.285Z,1.00
2023-01-14T23:19:55.783Z,0.73
2023-01-14T23:24:59.493Z,0.70
2023-01-14T23:30:05.856Z,0.70
2023-01-14T23:35:09.797Z,0.57
2023-01-14T23:40:14.468Z,0.68
2023-01-14T23:45:19.929Z,0.80
2023-01-14T23:50:23.749Z,0.57
2023-01-14T23:55:27.742Z,0.77
